Haines, AK

3:41 PM AKST on December 07, 2016 (GMT -0900)
Letnikof Cove | | Change Station
Active Advisory: Winter Storm Warning

Elev 230 ft 59.17 °N, 135.39 °W | Updated 12 seconds ago

Snow
Snow Freezing Fog
17.1 °F
Feels Like 17 °F
N
0.0
Wind Variable Wind from NW
Gusts 0.0 mph

Today
High -- | Low -- °F
--% Chance of Precip.
Yesterday
High -- | Low -- °F
Precip. -- in
Pressure 30.47 in
Visibility 0.5 miles
Clouds
Windchill 17 °F
Dew Point 11 °F
Humidity 78%
Rainfall 0.00 in
Snow Depth Not available.
8:42 AM 3:04 PM
First Quarter, 57% visible
SPECI PAHN 080010Z AUTO 30009KT 1/2SM SN FZFG VV009 M10/M12 A3047 RMK AO2 P0001 T11001117 TSNO
Pressure 30.47 in
Visibility 0.5 miles
Clouds
Windchill 17 °F
Dew Point 11 °F
Humidity 78%
Rainfall 0.00 in
Snow Depth Not available.
8:42 AM 3:04 PM
First Quarter, 57% visible
SPECI PAHN 080010Z AUTO 30009KT 1/2SM SN FZFG VV009 M10/M12 A3047 RMK AO2 P0001 T11001117 TSNO

10-Day Weather Forecast

Almanac

Astronomy

Dec. 07, 2016 Rise Set
Actual Time
Civil Twilight
Nautical Twilight
Astronomical Twilight
Moon
Length of Visible Light
Length of Day
Tomorrow will be .
, % of the Moon is Illuminated

Today's Extremes

State Highs State Lows

Community

WunderPhotos

Upload Photos

1,956,237 photos uploaded!

WunderBlog® & News

Nearby

Air Quality

  Air Quality AQ Index Pollutant
Not available.

Snow Depth

Station Depth Elevation

Earthquake Activity

City Distance Mag. Time & Date
Minimum magnitude displayed is 2.5.

Coastal Water Temperatures

Place Temperature

Stations

Nearby Weather Stations

Station Location Temp. Windchill Dew Point Humidity Wind Precip. Elev Updated Type
                   

Watches & Warnings

Winter Storm Warning
Issued: 2:10 PM AKST Dec. 7, 2016 – National Weather Service

... Winter Storm Warning remains in effect until 9 PM akst this
evening...

* location... Juneau... Gustavus... Elfin Cove... and Pelican.

* Snow... snow accumulations of 10 to 18 inches were observed
around the Juneau and Gustavus areas with around 25 inches
reported near Pelican as of early Wednesday afternoon. Total
snow accumulation of 12 to 20 inches expected around Juneau and
Gustavus with 30 to 36 inches expected near Pelican through
Wednesday evening.

* Impacts... travel may be hazardous. There will be periods of
reduced visibility through Wednesday evening.

Precautionary/preparedness actions...

A warning means that a winter storm is already occurring or
imminent. This storm could pose a threat to life and property.

This statement will be updated by 9 PM akst Wednesday or sooner
if conditions warrant.